sensor_id;sensor_type;location;lat;lon;timestamp;P1;durP1;ratioP1;P2;durP2;ratioP2
74415;SDS011;62850;42.428;25.618;2023-12-20T00:00:01;14.50;;;6.60;;
74415;SDS011;62850;42.428;25.618;2023-12-20T00:02:27;17.05;;;7.68;;
74415;SDS011;62850;42.428;25.618;2023-12-20T00:04:53;12.45;;;7.05;;
74415;SDS011;62850;42.428;25.618;2023-12-20T00:07:18;12.20;;;6.80;;
74415;SDS011;62850;42.428;25.618;2023-12-20T00:09:44;13.85;;;7.32;;
74415;SDS011;62850;42.428;25.618;2023-12-20T00:12:10;11.85;;;6.55;;
74415;SDS011;62850;42.428;25.618;2023-12-20T00:14:35;13.35;;;6.78;;
74415;SDS011;62850;42.428;25.618;2023-12-20T00:17:01;13.48;;;5.75;;
74415;SDS011;62850;42.428;25.618;2023-12-20T00:19:26;14.43;;;6.13;;
74415;SDS011;62850;42.428;25.618;2023-12-20T00:21:51;12.25;;;6.15;;
74415;SDS011;62850;42.428;25.618;2023-12-20T00:24:17;14.02;;;6.18;;
74415;SDS011;62850;42.428;25.618;2023-12-20T00:26:42;12.82;;;6.35;;
74415;SDS011;62850;42.428;25.618;2023-12-20T00:29:08;12.05;;;6.22;;
74415;SDS011;62850;42.428;25.618;2023-12-20T00:31:33;12.13;;;6.03;;
74415;SDS011;62850;42.428;25.618;2023-12-20T00:33:59;12.40;;;5.60;;
74415;SDS011;62850;42.428;25.618;2023-12-20T00:36:24;12.43;;;5.97;;
74415;SDS011;62850;42.428;25.618;2023-12-20T00:38:49;11.25;;;5.85;;
74415;SDS011;62850;42.428;25.618;2023-12-20T00:41:16;13.05;;;6.32;;
74415;SDS011;62850;42.428;25.618;2023-12-20T00:43:41;11.63;;;5.82;;
74415;SDS011;62850;42.428;25.618;2023-12-20T00:46:07;12.52;;;5.65;;
74415;SDS011;62850;42.428;25.618;2023-12-20T00:48:32;11.50;;;5.43;;
74415;SDS011;62850;42.428;25.618;2023-12-20T00:50:58;10.88;;;4.93;;
74415;SDS011;62850;42.428;25.618;2023-12-20T00:53:23;10.68;;;4.88;;
74415;SDS011;62850;42.428;25.618;2023-12-20T00:55:49;9.75;;;5.32;;
74415;SDS011;62850;42.428;25.618;2023-12-20T00:58:15;13.32;;;4.90;;
74415;SDS011;62850;42.428;25.618;2023-12-20T01:00:40;9.93;;;4.72;;
74415;SDS011;62850;42.428;25.618;2023-12-20T01:03:08;11.00;;;5.10;;
74415;SDS011;62850;42.428;25.618;2023-12-20T01:05:33;8.82;;;4.82;;
74415;SDS011;62850;42.428;25.618;2023-12-20T01:07:58;10.60;;;4.72;;
74415;SDS011;62850;42.428;25.618;2023-12-20T01:10:24;10.82;;;4.50;;
74415;SDS011;62850;42.428;25.618;2023-12-20T01:12:53;11.13;;;4.60;;
74415;SDS011;62850;42.428;25.618;2023-12-20T01:15:18;11.27;;;5.03;;
74415;SDS011;62850;42.428;25.618;2023-12-20T01:17:44;8.50;;;4.65;;
74415;SDS011;62850;42.428;25.618;2023-12-20T01:20:09;9.48;;;4.45;;
74415;SDS011;62850;42.428;25.618;2023-12-20T01:22:35;9.60;;;4.15;;
74415;SDS011;62850;42.428;25.618;2023-12-20T01:25:01;9.73;;;4.70;;
74415;SDS011;62850;42.428;25.618;2023-12-20T01:27:27;10.00;;;4.20;;
74415;SDS011;62850;42.428;25.618;2023-12-20T01:29:53;9.45;;;4.68;;
74415;SDS011;62850;42.428;25.618;2023-12-20T01:32:19;8.32;;;4.03;;
74415;SDS011;62850;42.428;25.618;2023-12-20T01:34:44;9.63;;;4.65;;
74415;SDS011;62850;42.428;25.618;2023-12-20T01:37:10;9.10;;;4.00;;
74415;SDS011;62850;42.428;25.618;2023-12-20T01:39:35;8.88;;;4.65;;
74415;SDS011;62850;42.428;25.618;2023-12-20T01:42:01;9.90;;;4.05;;
74415;SDS011;62850;42.428;25.618;2023-12-20T01:44:27;8.35;;;4.50;;
74415;SDS011;62850;42.428;25.618;2023-12-20T01:46:52;11.10;;;4.95;;
74415;SDS011;62850;42.428;25.618;2023-12-20T01:49:18;13.68;;;5.63;;
74415;SDS011;62850;42.428;25.618;2023-12-20T01:51:44;9.98;;;4.82;;
74415;SDS011;62850;42.428;25.618;2023-12-20T01:54:10;10.85;;;5.93;;
74415;SDS011;62850;42.428;25.618;2023-12-20T01:56:35;12.15;;;5.40;;
74415;SDS011;62850;42.428;25.618;2023-12-20T01:59:01;11.93;;;5.43;;
74415;SDS011;62850;42.428;25.618;2023-12-20T02:01:27;8.27;;;4.80;;
74415;SDS011;62850;42.428;25.618;2023-12-20T02:03:53;8.93;;;4.55;;
74415;SDS011;62850;42.428;25.618;2023-12-20T02:06:20;8.82;;;3.95;;
74415;SDS011;62850;42.428;25.618;2023-12-20T02:08:47;9.43;;;4.13;;
74415;SDS011;62850;42.428;25.618;2023-12-20T02:11:14;10.10;;;4.90;;
74415;SDS011;62850;42.428;25.618;2023-12-20T02:13:40;9.10;;;4.68;;
74415;SDS011;62850;42.428;25.618;2023-12-20T02:16:06;10.35;;;4.65;;
74415;SDS011;62850;42.428;25.618;2023-12-20T02:18:32;9.10;;;4.13;;
74415;SDS011;62850;42.428;25.618;2023-12-20T02:20:58;9.35;;;4.55;;
74415;SDS011;62850;42.428;25.618;2023-12-20T02:23:23;8.25;;;4.13;;
74415;SDS011;62850;42.428;25.618;2023-12-20T02:25:49;12.05;;;5.25;;
74415;SDS011;62850;42.428;25.618;2023-12-20T02:28:14;8.45;;;4.32;;
74415;SDS011;62850;42.428;25.618;2023-12-20T02:30:40;8.90;;;4.13;;
74415;SDS011;62850;42.428;25.618;2023-12-20T02:33:07;10.52;;;4.80;;
74415;SDS011;62850;42.428;25.618;2023-12-20T02:35:36;9.18;;;4.53;;
74415;SDS011;62850;42.428;25.618;2023-12-20T02:38:02;10.27;;;4.68;;
74415;SDS011;62850;42.428;25.618;2023-12-20T02:40:27;9.60;;;4.70;;
74415;SDS011;62850;42.428;25.618;2023-12-20T02:42:53;9.20;;;4.75;;
74415;SDS011;62850;42.428;25.618;2023-12-20T02:45:18;14.27;;;5.35;;
74415;SDS011;62850;42.428;25.618;2023-12-20T02:47:43;12.18;;;5.70;;
74415;SDS011;62850;42.428;25.618;2023-12-20T02:50:09;10.23;;;4.97;;
74415;SDS011;62850;42.428;25.618;2023-12-20T02:52:34;12.23;;;5.60;;
74415;SDS011;62850;42.428;25.618;2023-12-20T02:55:00;11.20;;;5.70;;
74415;SDS011;62850;42.428;25.618;2023-12-20T02:57:25;14.73;;;5.63;;
74415;SDS011;62850;42.428;25.618;2023-12-20T02:59:51;10.90;;;5.78;;
74415;SDS011;62850;42.428;25.618;2023-12-20T03:02:16;12.35;;;6.40;;
74415;SDS011;62850;42.428;25.618;2023-12-20T03:04:41;14.07;;;6.60;;
74415;SDS011;62850;42.428;25.618;2023-12-20T03:07:07;12.15;;;6.05;;
74415;SDS011;62850;42.428;25.618;2023-12-20T03:09:32;15.70;;;6.63;;
74415;SDS011;62850;42.428;25.618;2023-12-20T03:11:58;15.23;;;6.30;;
74415;SDS011;62850;42.428;25.618;2023-12-20T03:14:23;11.40;;;5.68;;
74415;SDS011;62850;42.428;25.618;2023-12-20T03:16:49;12.95;;;5.88;;
74415;SDS011;62850;42.428;25.618;2023-12-20T03:19:15;15.27;;;7.20;;
74415;SDS011;62850;42.428;25.618;2023-12-20T03:21:41;13.70;;;7.43;;
74415;SDS011;62850;42.428;25.618;2023-12-20T03:24:06;16.85;;;7.43;;
74415;SDS011;62850;42.428;25.618;2023-12-20T03:26:32;13.27;;;7.05;;
74415;SDS011;62850;42.428;25.618;2023-12-20T03:28:57;12.68;;;6.07;;
74415;SDS011;62850;42.428;25.618;2023-12-20T03:31:23;13.38;;;6.30;;
74415;SDS011;62850;42.428;25.618;2023-12-20T03:33:48;13.52;;;6.22;;
74415;SDS011;62850;42.428;25.618;2023-12-20T03:36:14;12.88;;;6.53;;
74415;SDS011;62850;42.428;25.618;2023-12-20T03:38:39;12.32;;;6.05;;
74415;SDS011;62850;42.428;25.618;2023-12-20T03:41:05;13.05;;;6.88;;
74415;SDS011;62850;42.428;25.618;2023-12-20T03:43:30;14.27;;;7.18;;
74415;SDS011;62850;42.428;25.618;2023-12-20T03:45:56;14.10;;;6.45;;
74415;SDS011;62850;42.428;25.618;2023-12-20T03:48:21;12.10;;;6.38;;
74415;SDS011;62850;42.428;25.618;2023-12-20T03:50:47;13.43;;;6.53;;
74415;SDS011;62850;42.428;25.618;2023-12-20T03:53:12;10.88;;;6.22;;
74415;SDS011;62850;42.428;25.618;2023-12-20T03:55:37;12.93;;;5.95;;
74415;SDS011;62850;42.428;25.618;2023-12-20T03:58:03;14.25;;;6.20;;
74415;SDS011;62850;42.428;25.618;2023-12-20T04:00:28;12.90;;;5.75;;
74415;SDS011;62850;42.428;25.618;2023-12-20T04:02:54;13.45;;;5.90;;
74415;SDS011;62850;42.428;25.618;2023-12-20T04:05:19;13.55;;;6.97;;
74415;SDS011;62850;42.428;25.618;2023-12-20T04:07:45;15.40;;;6.72;;
74415;SDS011;62850;42.428;25.618;2023-12-20T04:10:10;12.57;;;5.75;;
74415;SDS011;62850;42.428;25.618;2023-12-20T04:12:36;12.73;;;6.50;;
74415;SDS011;62850;42.428;25.618;2023-12-20T04:15:01;12.85;;;6.97;;
74415;SDS011;62850;42.428;25.618;2023-12-20T04:17:28;15.43;;;6.85;;
74415;SDS011;62850;42.428;25.618;2023-12-20T04:19:54;14.20;;;6.50;;
74415;SDS011;62850;42.428;25.618;2023-12-20T04:22:19;11.38;;;5.97;;
74415;SDS011;62850;42.428;25.618;2023-12-20T04:24:45;11.35;;;6.05;;
74415;SDS011;62850;42.428;25.618;2023-12-20T04:27:10;10.68;;;5.30;;
74415;SDS011;62850;42.428;25.618;2023-12-20T04:29:36;10.45;;;5.47;;
74415;SDS011;62850;42.428;25.618;2023-12-20T04:32:02;13.20;;;6.15;;
74415;SDS011;62850;42.428;25.618;2023-12-20T04:34:28;15.48;;;6.75;;
74415;SDS011;62850;42.428;25.618;2023-12-20T04:36:53;15.85;;;6.60;;
74415;SDS011;62850;42.428;25.618;2023-12-20T04:39:19;12.73;;;6.60;;
74415;SDS011;62850;42.428;25.618;2023-12-20T04:41:44;13.35;;;6.78;;
74415;SDS011;62850;42.428;25.618;2023-12-20T04:44:10;14.40;;;7.10;;
74415;SDS011;62850;42.428;25.618;2023-12-20T04:46:35;12.63;;;5.68;;
74415;SDS011;62850;42.428;25.618;2023-12-20T04:49:00;14.35;;;7.32;;
74415;SDS011;62850;42.428;25.618;2023-12-20T04:51:26;13.13;;;6.68;;
74415;SDS011;62850;42.428;25.618;2023-12-20T04:53:52;14.90;;;7.03;;
74415;SDS011;62850;42.428;25.618;2023-12-20T04:56:17;13.27;;;6.47;;
74415;SDS011;62850;42.428;25.618;2023-12-20T04:58:43;15.45;;;6.82;;
74415;SDS011;62850;42.428;25.618;2023-12-20T05:01:09;13.25;;;6.00;;
74415;SDS011;62850;42.428;25.618;2023-12-20T05:03:34;16.25;;;6.50;;
74415;SDS011;62850;42.428;25.618;2023-12-20T05:06:00;14.63;;;6.97;;
74415;SDS011;62850;42.428;25.618;2023-12-20T05:08:26;13.85;;;6.30;;
74415;SDS011;62850;42.428;25.618;2023-12-20T05:10:54;12.98;;;6.15;;
74415;SDS011;62850;42.428;25.618;2023-12-20T05:13:20;13.18;;;6.88;;
74415;SDS011;62850;42.428;25.618;2023-12-20T05:15:46;14.55;;;6.18;;
74415;SDS011;62850;42.428;25.618;2023-12-20T05:18:12;12.30;;;5.45;;
74415;SDS011;62850;42.428;25.618;2023-12-20T05:20:38;12.30;;;6.55;;
74415;SDS011;62850;42.428;25.618;2023-12-20T05:23:03;13.27;;;6.38;;
74415;SDS011;62850;42.428;25.618;2023-12-20T05:25:29;13.73;;;6.18;;
74415;SDS011;62850;42.428;25.618;2023-12-20T05:27:54;12.13;;;7.18;;
74415;SDS011;62850;42.428;25.618;2023-12-20T05:30:21;19.75;;;6.78;;
74415;SDS011;62850;42.428;25.618;2023-12-20T05:32:46;12.80;;;6.28;;
74415;SDS011;62850;42.428;25.618;2023-12-20T05:35:12;13.60;;;6.40;;
74415;SDS011;62850;42.428;25.618;2023-12-20T05:37:37;14.70;;;7.15;;
74415;SDS011;62850;42.428;25.618;2023-12-20T05:40:03;14.95;;;7.00;;
74415;SDS011;62850;42.428;25.618;2023-12-20T05:42:29;14.80;;;6.65;;
74415;SDS011;62850;42.428;25.618;2023-12-20T05:44:55;14.45;;;7.25;;
74415;SDS011;62850;42.428;25.618;2023-12-20T05:47:20;16.08;;;6.70;;
74415;SDS011;62850;42.428;25.618;2023-12-20T05:49:45;15.82;;;6.72;;
74415;SDS011;62850;42.428;25.618;2023-12-20T05:52:11;16.08;;;7.30;;
74415;SDS011;62850;42.428;25.618;2023-12-20T05:54:36;15.63;;;7.20;;
74415;SDS011;62850;42.428;25.618;2023-12-20T05:57:02;14.93;;;7.25;;
74415;SDS011;62850;42.428;25.618;2023-12-20T05:59:27;17.63;;;7.75;;
74415;SDS011;62850;42.428;25.618;2023-12-20T06:01:53;15.50;;;7.53;;
74415;SDS011;62850;42.428;25.618;2023-12-20T06:04:18;16.50;;;7.82;;
74415;SDS011;62850;42.428;25.618;2023-12-20T06:06:44;19.15;;;8.50;;
74415;SDS011;62850;42.428;25.618;2023-12-20T06:09:10;18.83;;;9.00;;
74415;SDS011;62850;42.428;25.618;2023-12-20T06:11:35;16.42;;;8.45;;
74415;SDS011;62850;42.428;25.618;2023-12-20T06:14:01;17.33;;;8.27;;
74415;SDS011;62850;42.428;25.618;2023-12-20T06:16:26;14.93;;;8.27;;
74415;SDS011;62850;42.428;25.618;2023-12-20T06:18:52;17.88;;;8.73;;
74415;SDS011;62850;42.428;25.618;2023-12-20T06:21:17;15.63;;;8.05;;
74415;SDS011;62850;42.428;25.618;2023-12-20T06:23:43;14.55;;;8.25;;
74415;SDS011;62850;42.428;25.618;2023-12-20T06:26:08;16.25;;;7.45;;
74415;SDS011;62850;42.428;25.618;2023-12-20T06:28:34;15.32;;;7.22;;
74415;SDS011;62850;42.428;25.618;2023-12-20T06:30:59;14.65;;;7.78;;
74415;SDS011;62850;42.428;25.618;2023-12-20T06:33:25;15.50;;;7.78;;
74415;SDS011;62850;42.428;25.618;2023-12-20T06:35:51;13.25;;;7.75;;
74415;SDS011;62850;42.428;25.618;2023-12-20T06:38:17;16.88;;;7.50;;
74415;SDS011;62850;42.428;25.618;2023-12-20T06:40:43;12.88;;;6.82;;
74415;SDS011;62850;42.428;25.618;2023-12-20T06:43:09;15.80;;;8.55;;
74415;SDS011;62850;42.428;25.618;2023-12-20T06:45:34;16.23;;;8.07;;
74415;SDS011;62850;42.428;25.618;2023-12-20T06:48:00;19.17;;;8.75;;
74415;SDS011;62850;42.428;25.618;2023-12-20T06:50:25;18.60;;;8.52;;
74415;SDS011;62850;42.428;25.618;2023-12-20T06:52:51;21.42;;;9.65;;
74415;SDS011;62850;42.428;25.618;2023-12-20T06:55:17;18.98;;;9.32;;
74415;SDS011;62850;42.428;25.618;2023-12-20T06:57:43;18.95;;;10.25;;
74415;SDS011;62850;42.428;25.618;2023-12-20T07:00:08;26.33;;;13.80;;
74415;SDS011;62850;42.428;25.618;2023-12-20T07:02:39;24.52;;;12.98;;
74415;SDS011;62850;42.428;25.618;2023-12-20T07:05:04;27.98;;;16.58;;
74415;SDS011;62850;42.428;25.618;2023-12-20T07:07:30;32.55;;;16.65;;
74415;SDS011;62850;42.428;25.618;2023-12-20T07:09:55;32.63;;;16.23;;
74415;SDS011;62850;42.428;25.618;2023-12-20T07:12:21;31.77;;;17.08;;
74415;SDS011;62850;42.428;25.618;2023-12-20T07:14:46;33.40;;;16.83;;
74415;SDS011;62850;42.428;25.618;2023-12-20T07:17:12;37.50;;;16.35;;
74415;SDS011;62850;42.428;25.618;2023-12-20T07:19:39;33.55;;;16.65;;
74415;SDS011;62850;42.428;25.618;2023-12-20T07:22:05;31.63;;;17.02;;
74415;SDS011;62850;42.428;25.618;2023-12-20T07:24:32;31.38;;;18.33;;
74415;SDS011;62850;42.428;25.618;2023-12-20T07:26:58;37.08;;;17.98;;
74415;SDS011;62850;42.428;25.618;2023-12-20T07:29:24;33.50;;;18.92;;
74415;SDS011;62850;42.428;25.618;2023-12-20T07:31:50;36.60;;;17.77;;
74415;SDS011;62850;42.428;25.618;2023-12-20T07:34:17;33.30;;;18.02;;
74415;SDS011;62850;42.428;25.618;2023-12-20T07:36:42;38.10;;;18.60;;
74415;SDS011;62850;42.428;25.618;2023-12-20T07:39:08;36.08;;;20.05;;
74415;SDS011;62850;42.428;25.618;2023-12-20T07:41:33;37.42;;;21.60;;
74415;SDS011;62850;42.428;25.618;2023-12-20T07:43:59;48.13;;;24.05;;
74415;SDS011;62850;42.428;25.618;2023-12-20T07:46:24;51.70;;;27.00;;
74415;SDS011;62850;42.428;25.618;2023-12-20T07:48:50;48.75;;;24.77;;
74415;SDS011;62850;42.428;25.618;2023-12-20T07:51:15;53.35;;;25.50;;
74415;SDS011;62850;42.428;25.618;2023-12-20T07:53:41;51.88;;;26.85;;
74415;SDS011;62850;42.428;25.618;2023-12-20T07:56:16;50.38;;;26.00;;
74415;SDS011;62850;42.428;25.618;2023-12-20T07:58:42;53.55;;;26.85;;
74415;SDS011;62850;42.428;25.618;2023-12-20T08:01:08;49.53;;;27.35;;
74415;SDS011;62850;42.428;25.618;2023-12-20T08:03:34;58.05;;;29.27;;
74415;SDS011;62850;42.428;25.618;2023-12-20T08:05:59;57.55;;;30.83;;
74415;SDS011;62850;42.428;25.618;2023-12-20T08:08:25;60.42;;;29.25;;
74415;SDS011;62850;42.428;25.618;2023-12-20T08:10:51;65.72;;;32.25;;
74415;SDS011;62850;42.428;25.618;2023-12-20T08:13:16;60.05;;;33.50;;
74415;SDS011;62850;42.428;25.618;2023-12-20T08:15:42;70.45;;;35.70;;
74415;SDS011;62850;42.428;25.618;2023-12-20T08:18:07;61.42;;;31.48;;
74415;SDS011;62850;42.428;25.618;2023-12-20T08:20:33;69.05;;;33.30;;
74415;SDS011;62850;42.428;25.618;2023-12-20T08:22:58;60.40;;;32.15;;
74415;SDS011;62850;42.428;25.618;2023-12-20T08:25:23;58.90;;;28.92;;
74415;SDS011;62850;42.428;25.618;2023-12-20T08:27:49;52.47;;;28.77;;
74415;SDS011;62850;42.428;25.618;2023-12-20T08:30:14;55.50;;;26.88;;
74415;SDS011;62850;42.428;25.618;2023-12-20T08:32:42;55.63;;;27.95;;
74415;SDS011;62850;42.428;25.618;2023-12-20T08:35:07;51.88;;;28.00;;
74415;SDS011;62850;42.428;25.618;2023-12-20T08:37:33;49.35;;;26.58;;
74415;SDS011;62850;42.428;25.618;2023-12-20T08:40:00;50.45;;;24.10;;
74415;SDS011;62850;42.428;25.618;2023-12-20T08:42:26;48.92;;;24.92;;
74415;SDS011;62850;42.428;25.618;2023-12-20T08:44:56;50.33;;;24.70;;
74415;SDS011;62850;42.428;25.618;2023-12-20T08:47:22;44.03;;;24.75;;
74415;SDS011;62850;42.428;25.618;2023-12-20T08:49:47;42.17;;;22.73;;
74415;SDS011;62850;42.428;25.618;2023-12-20T08:52:13;46.22;;;25.20;;
74415;SDS011;62850;42.428;25.618;2023-12-20T08:54:38;45.95;;;23.05;;
74415;SDS011;62850;42.428;25.618;2023-12-20T08:57:04;51.80;;;24.92;;
74415;SDS011;62850;42.428;25.618;2023-12-20T08:59:31;55.78;;;25.23;;
74415;SDS011;62850;42.428;25.618;2023-12-20T09:01:57;53.00;;;25.20;;
74415;SDS011;62850;42.428;25.618;2023-12-20T09:04:23;51.90;;;25.38;;
74415;SDS011;62850;42.428;25.618;2023-12-20T09:06:48;48.72;;;23.48;;
74415;SDS011;62850;42.428;25.618;2023-12-20T09:09:14;51.17;;;25.45;;
74415;SDS011;62850;42.428;25.618;2023-12-20T09:11:39;50.50;;;24.33;;
74415;SDS011;62850;42.428;25.618;2023-12-20T09:14:05;50.75;;;26.52;;
74415;SDS011;62850;42.428;25.618;2023-12-20T09:16:31;55.58;;;25.50;;
74415;SDS011;62850;42.428;25.618;2023-12-20T09:18:56;53.95;;;27.65;;
74415;SDS011;62850;42.428;25.618;2023-12-20T09:21:22;53.95;;;27.50;;
74415;SDS011;62850;42.428;25.618;2023-12-20T09:23:48;53.72;;;26.65;;
74415;SDS011;62850;42.428;25.618;2023-12-20T09:26:13;49.28;;;26.30;;
74415;SDS011;62850;42.428;25.618;2023-12-20T09:28:39;54.97;;;29.45;;
74415;SDS011;62850;42.428;25.618;2023-12-20T09:31:05;60.80;;;30.85;;
74415;SDS011;62850;42.428;25.618;2023-12-20T09:33:32;61.25;;;28.50;;
74415;SDS011;62850;42.428;25.618;2023-12-20T09:35:58;55.38;;;27.48;;
74415;SDS011;62850;42.428;25.618;2023-12-20T09:38:23;57.78;;;26.90;;
74415;SDS011;62850;42.428;25.618;2023-12-20T09:40:49;50.92;;;24.52;;
74415;SDS011;62850;42.428;25.618;2023-12-20T09:43:15;48.10;;;24.58;;
74415;SDS011;62850;42.428;25.618;2023-12-20T09:45:47;50.13;;;25.30;;
74415;SDS011;62850;42.428;25.618;2023-12-20T09:48:13;44.03;;;23.15;;
74415;SDS011;62850;42.428;25.618;2023-12-20T09:50:42;50.72;;;23.95;;
74415;SDS011;62850;42.428;25.618;2023-12-20T09:53:09;48.33;;;23.40;;
74415;SDS011;62850;42.428;25.618;2023-12-20T09:55:36;40.45;;;22.45;;
74415;SDS011;62850;42.428;25.618;2023-12-20T09:58:04;47.97;;;22.30;;
74415;SDS011;62850;42.428;25.618;2023-12-20T10:00:30;44.20;;;21.10;;
74415;SDS011;62850;42.428;25.618;2023-12-20T10:02:56;46.03;;;21.08;;
74415;SDS011;62850;42.428;25.618;2023-12-20T10:05:26;45.35;;;22.48;;
74415;SDS011;62850;42.428;25.618;2023-12-20T10:07:56;45.78;;;22.20;;
74415;SDS011;62850;42.428;25.618;2023-12-20T10:10:22;44.03;;;22.75;;
74415;SDS011;62850;42.428;25.618;2023-12-20T10:13:01;50.47;;;24.55;;
74415;SDS011;62850;42.428;25.618;2023-12-20T10:15:31;49.05;;;25.70;;
74415;SDS011;62850;42.428;25.618;2023-12-20T10:17:58;52.00;;;26.50;;
74415;SDS011;62850;42.428;25.618;2023-12-20T10:20:24;53.78;;;28.98;;
74415;SDS011;62850;42.428;25.618;2023-12-20T10:22:50;54.03;;;29.90;;
74415;SDS011;62850;42.428;25.618;2023-12-20T10:25:18;62.33;;;32.42;;
74415;SDS011;62850;42.428;25.618;2023-12-20T10:27:44;68.43;;;32.35;;
74415;SDS011;62850;42.428;25.618;2023-12-20T10:30:10;51.30;;;28.42;;
74415;SDS011;62850;42.428;25.618;2023-12-20T10:32:36;44.45;;;24.40;;
74415;SDS011;62850;42.428;25.618;2023-12-20T10:35:01;47.17;;;24.25;;
74415;SDS011;62850;42.428;25.618;2023-12-20T10:37:27;47.10;;;23.65;;
74415;SDS011;62850;42.428;25.618;2023-12-20T10:39:53;42.80;;;22.20;;
74415;SDS011;62850;42.428;25.618;2023-12-20T10:42:22;44.53;;;23.30;;
74415;SDS011;62850;42.428;25.618;2023-12-20T10:44:51;49.75;;;26.38;;
74415;SDS011;62850;42.428;25.618;2023-12-20T10:47:16;51.17;;;25.00;;
74415;SDS011;62850;42.428;25.618;2023-12-20T10:49:42;41.90;;;24.15;;
74415;SDS011;62850;42.428;25.618;2023-12-20T10:52:09;44.13;;;23.50;;
74415;SDS011;62850;42.428;25.618;2023-12-20T10:54:36;46.28;;;24.50;;
74415;SDS011;62850;42.428;25.618;2023-12-20T10:57:03;44.47;;;22.60;;
74415;SDS011;62850;42.428;25.618;2023-12-20T10:59:30;39.03;;;22.48;;
74415;SDS011;62850;42.428;25.618;2023-12-20T11:01:58;46.58;;;22.77;;
74415;SDS011;62850;42.428;25.618;2023-12-20T11:04:36;40.63;;;23.02;;
74415;SDS011;62850;42.428;25.618;2023-12-20T11:09:38;38.95;;;20.52;;
74415;SDS011;62850;42.428;25.618;2023-12-20T11:12:10;33.97;;;17.77;;
74415;SDS011;62850;42.428;25.618;2023-12-20T11:14:47;33.83;;;18.20;;
74415;SDS011;62850;42.428;25.618;2023-12-20T11:17:15;35.38;;;18.98;;
74415;SDS011;62850;42.428;25.618;2023-12-20T11:22:24;34.30;;;17.45;;
74415;SDS011;62850;42.428;25.618;2023-12-20T11:24:51;30.17;;;16.27;;
74415;SDS011;62850;42.428;25.618;2023-12-20T11:27:18;31.15;;;16.02;;
74415;SDS011;62850;42.428;25.618;2023-12-20T11:29:50;29.98;;;13.82;;
74415;SDS011;62850;42.428;25.618;2023-12-20T11:35:01;27.45;;;13.70;;
74415;SDS011;62850;42.428;25.618;2023-12-20T11:37:42;23.90;;;11.88;;
74415;SDS011;62850;42.428;25.618;2023-12-20T11:40:08;20.88;;;11.88;;
74415;SDS011;62850;42.428;25.618;2023-12-20T11:43:10;23.70;;;13.60;;
74415;SDS011;62850;42.428;25.618;2023-12-20T11:45:30;23.83;;;13.00;;
74415;SDS011;62850;42.428;25.618;2023-12-20T11:47:56;25.80;;;14.43;;
74415;SDS011;62850;42.428;25.618;2023-12-20T11:50:22;31.35;;;14.45;;
74415;SDS011;62850;42.428;25.618;2023-12-20T11:52:49;29.83;;;15.85;;
74415;SDS011;62850;42.428;25.618;2023-12-20T11:55:15;36.72;;;18.23;;
74415;SDS011;62850;42.428;25.618;2023-12-20T11:57:41;36.47;;;16.92;;
74415;SDS011;62850;42.428;25.618;2023-12-20T12:00:07;31.13;;;15.77;;
74415;SDS011;62850;42.428;25.618;2023-12-20T12:02:33;30.52;;;14.73;;
74415;SDS011;62850;42.428;25.618;2023-12-20T12:05:01;28.17;;;14.25;;
74415;SDS011;62850;42.428;25.618;2023-12-20T12:07:30;24.50;;;13.52;;
74415;SDS011;62850;42.428;25.618;2023-12-20T12:09:55;26.02;;;13.38;;
74415;SDS011;62850;42.428;25.618;2023-12-20T12:12:21;22.10;;;12.38;;
74415;SDS011;62850;42.428;25.618;2023-12-20T12:14:47;21.60;;;11.95;;
74415;SDS011;62850;42.428;25.618;2023-12-20T12:17:13;22.25;;;11.98;;
74415;SDS011;62850;42.428;25.618;2023-12-20T12:19:39;26.30;;;15.80;;
74415;SDS011;62850;42.428;25.618;2023-12-20T12:22:09;29.50;;;15.90;;
74415;SDS011;62850;42.428;25.618;2023-12-20T12:24:38;29.70;;;16.35;;
74415;SDS011;62850;42.428;25.618;2023-12-20T12:27:05;29.38;;;16.15;;
74415;SDS011;62850;42.428;25.618;2023-12-20T12:29:32;30.25;;;14.63;;
74415;SDS011;62850;42.428;25.618;2023-12-20T12:31:58;25.33;;;13.15;;
74415;SDS011;62850;42.428;25.618;2023-12-20T12:34:24;23.73;;;13.05;;
74415;SDS011;62850;42.428;25.618;2023-12-20T12:36:52;23.63;;;13.52;;
74415;SDS011;62850;42.428;25.618;2023-12-20T12:39:18;22.67;;;12.70;;
74415;SDS011;62850;42.428;25.618;2023-12-20T12:41:43;20.63;;;11.30;;
74415;SDS011;62850;42.428;25.618;2023-12-20T12:44:09;24.67;;;12.98;;
74415;SDS011;62850;42.428;25.618;2023-12-20T12:46:34;20.98;;;12.90;;
74415;SDS011;62850;42.428;25.618;2023-12-20T12:49:00;27.50;;;11.93;;
74415;SDS011;62850;42.428;25.618;2023-12-20T12:51:25;20.92;;;12.13;;
74415;SDS011;62850;42.428;25.618;2023-12-20T12:53:51;18.90;;;10.65;;
74415;SDS011;62850;42.428;25.618;2023-12-20T12:56:16;23.38;;;12.75;;
74415;SDS011;62850;42.428;25.618;2023-12-20T12:58:42;23.60;;;12.52;;
74415;SDS011;62850;42.428;25.618;2023-12-20T13:01:08;21.15;;;11.60;;
74415;SDS011;62850;42.428;25.618;2023-12-20T13:03:34;23.83;;;12.63;;
74415;SDS011;62850;42.428;25.618;2023-12-20T13:06:00;31.23;;;15.20;;
74415;SDS011;62850;42.428;25.618;2023-12-20T13:08:26;24.27;;;13.23;;
74415;SDS011;62850;42.428;25.618;2023-12-20T13:10:51;23.73;;;13.38;;
74415;SDS011;62850;42.428;25.618;2023-12-20T13:13:17;25.70;;;12.70;;
74415;SDS011;62850;42.428;25.618;2023-12-20T13:15:42;29.45;;;13.95;;
74415;SDS011;62850;42.428;25.618;2023-12-20T13:18:15;23.73;;;14.52;;
74415;SDS011;62850;42.428;25.618;2023-12-20T13:20:41;27.95;;;14.55;;
74415;SDS011;62850;42.428;25.618;2023-12-20T13:23:06;30.52;;;14.07;;
74415;SDS011;62850;42.428;25.618;2023-12-20T13:25:32;22.70;;;14.43;;
74415;SDS011;62850;42.428;25.618;2023-12-20T13:27:58;25.30;;;13.02;;
74415;SDS011;62850;42.428;25.618;2023-12-20T13:30:24;24.98;;;13.68;;
74415;SDS011;62850;42.428;25.618;2023-12-20T13:32:50;32.10;;;14.57;;
74415;SDS011;62850;42.428;25.618;2023-12-20T13:35:15;44.63;;;21.98;;
74415;SDS011;62850;42.428;25.618;2023-12-20T13:37:40;45.20;;;22.02;;
74415;SDS011;62850;42.428;25.618;2023-12-20T13:40:06;92.05;;;34.65;;
74415;SDS011;62850;42.428;25.618;2023-12-20T13:42:32;50.05;;;23.40;;
74415;SDS011;62850;42.428;25.618;2023-12-20T13:44:58;54.60;;;25.52;;
74415;SDS011;62850;42.428;25.618;2023-12-20T13:47:23;32.50;;;15.35;;
74415;SDS011;62850;42.428;25.618;2023-12-20T13:49:49;29.90;;;15.13;;
74415;SDS011;62850;42.428;25.618;2023-12-20T13:52:14;26.42;;;14.68;;
74415;SDS011;62850;42.428;25.618;2023-12-20T13:54:40;29.55;;;15.35;;
74415;SDS011;62850;42.428;25.618;2023-12-20T13:57:05;26.02;;;12.98;;
74415;SDS011;62850;42.428;25.618;2023-12-20T13:59:30;28.30;;;14.02;;
74415;SDS011;62850;42.428;25.618;2023-12-20T14:01:56;24.92;;;13.00;;
74415;SDS011;62850;42.428;25.618;2023-12-20T14:04:22;32.63;;;13.75;;
74415;SDS011;62850;42.428;25.618;2023-12-20T14:06:47;29.05;;;14.10;;
74415;SDS011;62850;42.428;25.618;2023-12-20T14:09:13;29.80;;;14.88;;
74415;SDS011;62850;42.428;25.618;2023-12-20T14:11:39;28.52;;;15.10;;
74415;SDS011;62850;42.428;25.618;2023-12-20T14:14:06;26.15;;;15.15;;
74415;SDS011;62850;42.428;25.618;2023-12-20T14:16:33;30.27;;;15.27;;